sensor_id;sensor_type;location;lat;lon;timestamp;P1;durP1;ratioP1;P2;durP2;ratioP2
34481;SDS011;20720;48.886;9.388;2023-01-23T00:00:38;32.45;;;14.80;;
34481;SDS011;20720;48.886;9.388;2023-01-23T00:03:05;33.55;;;15.23;;
34481;SDS011;20720;48.886;9.388;2023-01-23T00:05:30;31.60;;;15.35;;
34481;SDS011;20720;48.886;9.388;2023-01-23T00:07:56;33.20;;;15.38;;
34481;SDS011;20720;48.886;9.388;2023-01-23T00:10:21;26.33;;;13.95;;
34481;SDS011;20720;48.886;9.388;2023-01-23T00:12:46;27.98;;;14.65;;
34481;SDS011;20720;48.886;9.388;2023-01-23T00:15:13;25.33;;;13.52;;
34481;SDS011;20720;48.886;9.388;2023-01-23T00:17:40;25.23;;;13.27;;
34481;SDS011;20720;48.886;9.388;2023-01-23T00:20:09;23.58;;;12.88;;
34481;SDS011;20720;48.886;9.388;2023-01-23T00:22:35;22.67;;;12.65;;
34481;SDS011;20720;48.886;9.388;2023-01-23T00:25:01;22.23;;;12.38;;
34481;SDS011;20720;48.886;9.388;2023-01-23T00:27:27;21.15;;;11.32;;
34481;SDS011;20720;48.886;9.388;2023-01-23T00:29:52;18.88;;;10.23;;
34481;SDS011;20720;48.886;9.388;2023-01-23T00:32:18;17.80;;;10.90;;
34481;SDS011;20720;48.886;9.388;2023-01-23T00:34:43;20.30;;;11.30;;
34481;SDS011;20720;48.886;9.388;2023-01-23T00:37:09;21.02;;;12.02;;
34481;SDS011;20720;48.886;9.388;2023-01-23T00:39:34;19.33;;;11.20;;
34481;SDS011;20720;48.886;9.388;2023-01-23T00:42:00;18.52;;;11.02;;
34481;SDS011;20720;48.886;9.388;2023-01-23T00:44:25;18.92;;;10.32;;
34481;SDS011;20720;48.886;9.388;2023-01-23T00:46:50;18.27;;;10.57;;
34481;SDS011;20720;48.886;9.388;2023-01-23T00:49:16;15.25;;;9.32;;
34481;SDS011;20720;48.886;9.388;2023-01-23T00:51:42;19.05;;;10.65;;
34481;SDS011;20720;48.886;9.388;2023-01-23T00:54:07;18.40;;;11.30;;
34481;SDS011;20720;48.886;9.388;2023-01-23T00:56:33;19.00;;;11.07;;
34481;SDS011;20720;48.886;9.388;2023-01-23T00:58:58;21.58;;;10.70;;
34481;SDS011;20720;48.886;9.388;2023-01-23T01:01:23;16.80;;;9.90;;
34481;SDS011;20720;48.886;9.388;2023-01-23T01:03:50;15.80;;;9.70;;
34481;SDS011;20720;48.886;9.388;2023-01-23T01:06:15;17.42;;;10.30;;
34481;SDS011;20720;48.886;9.388;2023-01-23T01:08:40;16.58;;;9.65;;
34481;SDS011;20720;48.886;9.388;2023-01-23T01:11:06;15.68;;;9.00;;
34481;SDS011;20720;48.886;9.388;2023-01-23T01:13:32;16.42;;;9.73;;
34481;SDS011;20720;48.886;9.388;2023-01-23T01:15:57;16.15;;;9.32;;
34481;SDS011;20720;48.886;9.388;2023-01-23T01:18:25;17.23;;;9.40;;
34481;SDS011;20720;48.886;9.388;2023-01-23T01:20:51;16.17;;;10.18;;
34481;SDS011;20720;48.886;9.388;2023-01-23T01:23:17;15.65;;;9.45;;
34481;SDS011;20720;48.886;9.388;2023-01-23T01:25:42;15.63;;;9.10;;
34481;SDS011;20720;48.886;9.388;2023-01-23T01:28:07;16.13;;;9.07;;
34481;SDS011;20720;48.886;9.388;2023-01-23T01:30:33;15.27;;;9.00;;
34481;SDS011;20720;48.886;9.388;2023-01-23T01:33:00;16.02;;;8.98;;
34481;SDS011;20720;48.886;9.388;2023-01-23T01:35:26;14.98;;;9.02;;
34481;SDS011;20720;48.886;9.388;2023-01-23T01:37:51;15.75;;;9.18;;
34481;SDS011;20720;48.886;9.388;2023-01-23T01:40:18;14.07;;;8.38;;
34481;SDS011;20720;48.886;9.388;2023-01-23T01:42:51;17.77;;;10.00;;
34481;SDS011;20720;48.886;9.388;2023-01-23T01:48:23;19.30;;;10.60;;
34481;SDS011;20720;48.886;9.388;2023-01-23T01:50:54;16.02;;;9.32;;
34481;SDS011;20720;48.886;9.388;2023-01-23T01:53:20;18.42;;;9.27;;
34481;SDS011;20720;48.886;9.388;2023-01-23T01:55:49;17.27;;;9.98;;
34481;SDS011;20720;48.886;9.388;2023-01-23T01:58:15;21.02;;;11.02;;
34481;SDS011;20720;48.886;9.388;2023-01-23T02:00:40;17.88;;;10.18;;
34481;SDS011;20720;48.886;9.388;2023-01-23T02:03:05;20.58;;;11.57;;
34481;SDS011;20720;48.886;9.388;2023-01-23T02:05:35;19.88;;;10.77;;
34481;SDS011;20720;48.886;9.388;2023-01-23T02:10:51;13.65;;;8.60;;
34481;SDS011;20720;48.886;9.388;2023-01-23T02:15:57;21.70;;;11.45;;
34481;SDS011;20720;48.886;9.388;2023-01-23T02:18:24;19.77;;;11.90;;
34481;SDS011;20720;48.886;9.388;2023-01-23T02:20:52;20.25;;;11.95;;
34481;SDS011;20720;48.886;9.388;2023-01-23T02:25:53;19.48;;;11.30;;
34481;SDS011;20720;48.886;9.388;2023-01-23T02:28:22;20.08;;;11.82;;
34481;SDS011;20720;48.886;9.388;2023-01-23T02:30:47;20.13;;;11.63;;
34481;SDS011;20720;48.886;9.388;2023-01-23T02:35:49;19.88;;;11.00;;
34481;SDS011;20720;48.886;9.388;2023-01-23T02:38:14;17.27;;;10.10;;
34481;SDS011;20720;48.886;9.388;2023-01-23T02:40:44;18.98;;;11.00;;
34481;SDS011;20720;48.886;9.388;2023-01-23T02:43:11;20.80;;;12.05;;
34481;SDS011;20720;48.886;9.388;2023-01-23T02:45:41;20.27;;;11.27;;
34481;SDS011;20720;48.886;9.388;2023-01-23T02:48:06;18.80;;;10.98;;
34481;SDS011;20720;48.886;9.388;2023-01-23T02:50:32;20.08;;;11.95;;
34481;SDS011;20720;48.886;9.388;2023-01-23T02:52:58;20.90;;;12.02;;
34481;SDS011;20720;48.886;9.388;2023-01-23T02:55:24;19.58;;;10.57;;
34481;SDS011;20720;48.886;9.388;2023-01-23T02:57:54;19.83;;;11.50;;
34481;SDS011;20720;48.886;9.388;2023-01-23T03:00:41;20.08;;;11.60;;
34481;SDS011;20720;48.886;9.388;2023-01-23T03:03:07;18.13;;;10.90;;
34481;SDS011;20720;48.886;9.388;2023-01-23T03:05:33;19.95;;;12.02;;
34481;SDS011;20720;48.886;9.388;2023-01-23T03:07:58;18.75;;;11.52;;
34481;SDS011;20720;48.886;9.388;2023-01-23T03:10:23;23.65;;;12.98;;
34481;SDS011;20720;48.886;9.388;2023-01-23T03:12:49;19.67;;;10.90;;
34481;SDS011;20720;48.886;9.388;2023-01-23T03:15:14;19.02;;;10.82;;
34481;SDS011;20720;48.886;9.388;2023-01-23T03:17:39;19.70;;;11.52;;
34481;SDS011;20720;48.886;9.388;2023-01-23T03:20:05;19.35;;;12.20;;
34481;SDS011;20720;48.886;9.388;2023-01-23T03:22:31;19.67;;;11.50;;
34481;SDS011;20720;48.886;9.388;2023-01-23T03:24:56;16.63;;;8.85;;
34481;SDS011;20720;48.886;9.388;2023-01-23T03:27:22;19.67;;;11.48;;
34481;SDS011;20720;48.886;9.388;2023-01-23T03:29:48;22.08;;;12.00;;
34481;SDS011;20720;48.886;9.388;2023-01-23T03:32:31;21.58;;;11.95;;
34481;SDS011;20720;48.886;9.388;2023-01-23T03:34:57;20.38;;;12.30;;
34481;SDS011;20720;48.886;9.388;2023-01-23T03:37:23;21.73;;;12.55;;
34481;SDS011;20720;48.886;9.388;2023-01-23T03:39:48;22.33;;;12.48;;
34481;SDS011;20720;48.886;9.388;2023-01-23T03:42:32;22.05;;;12.57;;
34481;SDS011;20720;48.886;9.388;2023-01-23T03:44:58;20.02;;;12.20;;
34481;SDS011;20720;48.886;9.388;2023-01-23T03:47:24;20.58;;;12.38;;
34481;SDS011;20720;48.886;9.388;2023-01-23T03:49:50;19.33;;;11.75;;
34481;SDS011;20720;48.886;9.388;2023-01-23T03:52:16;20.05;;;12.18;;
34481;SDS011;20720;48.886;9.388;2023-01-23T03:54:41;19.92;;;12.20;;
34481;SDS011;20720;48.886;9.388;2023-01-23T03:57:06;22.63;;;12.68;;
34481;SDS011;20720;48.886;9.388;2023-01-23T03:59:32;23.25;;;13.00;;
34481;SDS011;20720;48.886;9.388;2023-01-23T04:01:57;21.58;;;13.02;;
34481;SDS011;20720;48.886;9.388;2023-01-23T04:04:24;21.40;;;12.63;;
34481;SDS011;20720;48.886;9.388;2023-01-23T04:06:50;22.40;;;12.35;;
34481;SDS011;20720;48.886;9.388;2023-01-23T04:09:15;23.55;;;13.15;;
34481;SDS011;20720;48.886;9.388;2023-01-23T04:11:41;20.98;;;12.43;;
34481;SDS011;20720;48.886;9.388;2023-01-23T04:14:06;20.25;;;11.07;;
34481;SDS011;20720;48.886;9.388;2023-01-23T04:16:31;15.57;;;9.63;;
34481;SDS011;20720;48.886;9.388;2023-01-23T04:18:56;21.70;;;11.88;;
34481;SDS011;20720;48.886;9.388;2023-01-23T04:21:22;24.42;;;13.02;;
34481;SDS011;20720;48.886;9.388;2023-01-23T04:23:48;19.90;;;11.40;;
34481;SDS011;20720;48.886;9.388;2023-01-23T04:26:13;22.13;;;12.40;;
34481;SDS011;20720;48.886;9.388;2023-01-23T04:28:38;23.63;;;12.95;;
34481;SDS011;20720;48.886;9.388;2023-01-23T04:31:04;24.27;;;12.70;;
34481;SDS011;20720;48.886;9.388;2023-01-23T04:33:30;18.23;;;10.20;;
34481;SDS011;20720;48.886;9.388;2023-01-23T04:35:57;20.45;;;11.38;;
34481;SDS011;20720;48.886;9.388;2023-01-23T04:38:25;22.30;;;12.40;;
34481;SDS011;20720;48.886;9.388;2023-01-23T04:40:51;25.33;;;13.35;;
34481;SDS011;20720;48.886;9.388;2023-01-23T04:43:17;21.45;;;11.80;;
34481;SDS011;20720;48.886;9.388;2023-01-23T04:45:43;23.92;;;13.63;;
34481;SDS011;20720;48.886;9.388;2023-01-23T04:48:09;20.38;;;11.80;;
34481;SDS011;20720;48.886;9.388;2023-01-23T04:50:36;26.40;;;12.30;;
34481;SDS011;20720;48.886;9.388;2023-01-23T04:53:02;22.45;;;12.85;;
34481;SDS011;20720;48.886;9.388;2023-01-23T04:55:27;22.52;;;11.55;;
34481;SDS011;20720;48.886;9.388;2023-01-23T04:57:53;23.02;;;12.13;;
34481;SDS011;20720;48.886;9.388;2023-01-23T05:00:19;21.48;;;12.23;;
34481;SDS011;20720;48.886;9.388;2023-01-23T05:02:45;25.05;;;12.05;;
34481;SDS011;20720;48.886;9.388;2023-01-23T05:05:11;21.38;;;11.65;;
34481;SDS011;20720;48.886;9.388;2023-01-23T05:07:37;21.65;;;11.40;;
34481;SDS011;20720;48.886;9.388;2023-01-23T05:10:03;21.42;;;12.32;;
34481;SDS011;20720;48.886;9.388;2023-01-23T05:12:29;21.23;;;11.77;;
34481;SDS011;20720;48.886;9.388;2023-01-23T05:14:55;23.48;;;11.68;;
34481;SDS011;20720;48.886;9.388;2023-01-23T05:17:20;19.42;;;11.30;;
34481;SDS011;20720;48.886;9.388;2023-01-23T05:19:45;22.13;;;12.30;;
34481;SDS011;20720;48.886;9.388;2023-01-23T05:22:11;22.77;;;11.98;;
34481;SDS011;20720;48.886;9.388;2023-01-23T05:24:36;21.98;;;12.05;;
34481;SDS011;20720;48.886;9.388;2023-01-23T05:27:01;24.50;;;11.85;;
34481;SDS011;20720;48.886;9.388;2023-01-23T05:29:27;23.20;;;12.30;;
34481;SDS011;20720;48.886;9.388;2023-01-23T05:31:52;24.00;;;13.30;;
34481;SDS011;20720;48.886;9.388;2023-01-23T05:34:17;21.52;;;11.48;;
34481;SDS011;20720;48.886;9.388;2023-01-23T05:36:42;22.23;;;12.43;;
34481;SDS011;20720;48.886;9.388;2023-01-23T05:39:08;23.58;;;12.18;;
34481;SDS011;20720;48.886;9.388;2023-01-23T05:41:33;22.10;;;12.18;;
34481;SDS011;20720;48.886;9.388;2023-01-23T05:43:58;20.35;;;11.43;;
34481;SDS011;20720;48.886;9.388;2023-01-23T05:46:24;21.23;;;12.30;;
34481;SDS011;20720;48.886;9.388;2023-01-23T05:48:49;22.02;;;11.43;;
34481;SDS011;20720;48.886;9.388;2023-01-23T05:51:15;17.40;;;9.38;;
34481;SDS011;20720;48.886;9.388;2023-01-23T05:53:41;23.10;;;12.32;;
34481;SDS011;20720;48.886;9.388;2023-01-23T05:56:07;20.60;;;11.40;;
34481;SDS011;20720;48.886;9.388;2023-01-23T05:58:32;23.80;;;12.10;;
34481;SDS011;20720;48.886;9.388;2023-01-23T06:00:58;22.73;;;12.10;;
34481;SDS011;20720;48.886;9.388;2023-01-23T06:03:23;24.65;;;13.30;;
34481;SDS011;20720;48.886;9.388;2023-01-23T06:05:48;23.98;;;12.45;;
34481;SDS011;20720;48.886;9.388;2023-01-23T06:08:14;23.67;;;13.00;;
34481;SDS011;20720;48.886;9.388;2023-01-23T06:10:39;24.23;;;13.30;;
34481;SDS011;20720;48.886;9.388;2023-01-23T06:13:04;22.02;;;11.98;;
34481;SDS011;20720;48.886;9.388;2023-01-23T06:15:30;23.95;;;13.15;;
34481;SDS011;20720;48.886;9.388;2023-01-23T06:17:55;24.05;;;13.13;;
34481;SDS011;20720;48.886;9.388;2023-01-23T06:20:20;23.77;;;12.80;;
34481;SDS011;20720;48.886;9.388;2023-01-23T06:22:45;19.10;;;10.75;;
34481;SDS011;20720;48.886;9.388;2023-01-23T06:25:11;21.48;;;12.10;;
34481;SDS011;20720;48.886;9.388;2023-01-23T06:27:36;23.48;;;13.05;;
34481;SDS011;20720;48.886;9.388;2023-01-23T06:30:02;25.25;;;13.18;;
34481;SDS011;20720;48.886;9.388;2023-01-23T06:32:27;22.33;;;11.73;;
34481;SDS011;20720;48.886;9.388;2023-01-23T06:34:52;19.02;;;10.88;;
34481;SDS011;20720;48.886;9.388;2023-01-23T06:37:18;22.80;;;12.73;;
34481;SDS011;20720;48.886;9.388;2023-01-23T06:39:43;23.52;;;13.02;;
34481;SDS011;20720;48.886;9.388;2023-01-23T06:42:08;25.88;;;13.82;;
34481;SDS011;20720;48.886;9.388;2023-01-23T06:44:37;19.60;;;10.25;;
34481;SDS011;20720;48.886;9.388;2023-01-23T06:47:02;25.55;;;13.40;;
34481;SDS011;20720;48.886;9.388;2023-01-23T06:49:28;22.58;;;11.88;;
34481;SDS011;20720;48.886;9.388;2023-01-23T06:51:54;25.67;;;13.10;;
34481;SDS011;20720;48.886;9.388;2023-01-23T06:54:19;23.92;;;12.98;;
34481;SDS011;20720;48.886;9.388;2023-01-23T06:56:45;25.75;;;12.63;;
34481;SDS011;20720;48.886;9.388;2023-01-23T06:59:10;22.92;;;11.95;;
34481;SDS011;20720;48.886;9.388;2023-01-23T07:01:36;25.27;;;12.65;;
34481;SDS011;20720;48.886;9.388;2023-01-23T07:04:01;25.48;;;13.68;;
34481;SDS011;20720;48.886;9.388;2023-01-23T07:06:26;27.33;;;14.27;;
34481;SDS011;20720;48.886;9.388;2023-01-23T07:08:55;22.52;;;12.38;;
34481;SDS011;20720;48.886;9.388;2023-01-23T07:11:20;26.63;;;13.50;;
34481;SDS011;20720;48.886;9.388;2023-01-23T07:13:45;25.30;;;12.02;;
34481;SDS011;20720;48.886;9.388;2023-01-23T07:16:10;26.02;;;13.30;;
34481;SDS011;20720;48.886;9.388;2023-01-23T07:18:36;26.90;;;13.15;;
34481;SDS011;20720;48.886;9.388;2023-01-23T07:21:03;32.28;;;14.40;;
34481;SDS011;20720;48.886;9.388;2023-01-23T07:23:30;26.45;;;12.88;;
34481;SDS011;20720;48.886;9.388;2023-01-23T07:26:02;27.48;;;14.35;;
34481;SDS011;20720;48.886;9.388;2023-01-23T07:28:31;25.70;;;13.30;;
34481;SDS011;20720;48.886;9.388;2023-01-23T07:30:57;30.08;;;13.63;;
34481;SDS011;20720;48.886;9.388;2023-01-23T07:33:23;28.73;;;14.73;;
34481;SDS011;20720;48.886;9.388;2023-01-23T07:35:48;23.50;;;11.93;;
34481;SDS011;20720;48.886;9.388;2023-01-23T07:38:14;22.98;;;11.60;;
34481;SDS011;20720;48.886;9.388;2023-01-23T07:40:39;26.88;;;13.98;;
34481;SDS011;20720;48.886;9.388;2023-01-23T07:43:06;25.50;;;12.50;;
34481;SDS011;20720;48.886;9.388;2023-01-23T07:45:32;28.67;;;13.68;;
34481;SDS011;20720;48.886;9.388;2023-01-23T07:47:57;28.42;;;14.20;;
34481;SDS011;20720;48.886;9.388;2023-01-23T07:50:22;27.08;;;13.73;;
34481;SDS011;20720;48.886;9.388;2023-01-23T07:52:48;27.42;;;14.15;;
34481;SDS011;20720;48.886;9.388;2023-01-23T07:55:13;28.05;;;13.90;;
34481;SDS011;20720;48.886;9.388;2023-01-23T07:57:38;25.98;;;12.93;;
34481;SDS011;20720;48.886;9.388;2023-01-23T08:00:04;27.88;;;13.98;;
34481;SDS011;20720;48.886;9.388;2023-01-23T08:02:29;27.42;;;14.07;;
34481;SDS011;20720;48.886;9.388;2023-01-23T08:04:55;30.02;;;15.00;;
34481;SDS011;20720;48.886;9.388;2023-01-23T08:07:20;24.58;;;12.98;;
34481;SDS011;20720;48.886;9.388;2023-01-23T08:09:45;28.45;;;14.50;;
34481;SDS011;20720;48.886;9.388;2023-01-23T08:12:11;24.00;;;12.30;;
34481;SDS011;20720;48.886;9.388;2023-01-23T08:14:36;27.63;;;13.63;;
34481;SDS011;20720;48.886;9.388;2023-01-23T08:17:02;29.20;;;14.25;;
34481;SDS011;20720;48.886;9.388;2023-01-23T08:19:27;28.80;;;13.38;;
34481;SDS011;20720;48.886;9.388;2023-01-23T08:21:53;24.90;;;12.82;;
34481;SDS011;20720;48.886;9.388;2023-01-23T08:24:18;24.17;;;12.48;;
34481;SDS011;20720;48.886;9.388;2023-01-23T08:26:43;28.15;;;14.05;;
34481;SDS011;20720;48.886;9.388;2023-01-23T08:29:09;28.15;;;13.95;;
34481;SDS011;20720;48.886;9.388;2023-01-23T08:31:35;23.80;;;12.25;;
34481;SDS011;20720;48.886;9.388;2023-01-23T08:34:00;24.75;;;11.65;;
34481;SDS011;20720;48.886;9.388;2023-01-23T08:36:26;25.45;;;13.02;;
34481;SDS011;20720;48.886;9.388;2023-01-23T08:38:51;21.80;;;11.38;;
34481;SDS011;20720;48.886;9.388;2023-01-23T08:41:16;22.77;;;12.15;;
34481;SDS011;20720;48.886;9.388;2023-01-23T08:43:42;19.83;;;10.63;;
34481;SDS011;20720;48.886;9.388;2023-01-23T08:46:07;23.77;;;12.13;;
34481;SDS011;20720;48.886;9.388;2023-01-23T08:48:34;18.95;;;9.55;;
34481;SDS011;20720;48.886;9.388;2023-01-23T08:51:01;22.13;;;11.75;;
34481;SDS011;20720;48.886;9.388;2023-01-23T08:53:31;19.73;;;9.50;;
34481;SDS011;20720;48.886;9.388;2023-01-23T08:56:01;22.50;;;10.90;;
34481;SDS011;20720;48.886;9.388;2023-01-23T08:58:28;20.85;;;11.50;;
34481;SDS011;20720;48.886;9.388;2023-01-23T09:00:54;20.90;;;12.00;;
34481;SDS011;20720;48.886;9.388;2023-01-23T09:03:19;22.52;;;11.65;;
34481;SDS011;20720;48.886;9.388;2023-01-23T09:05:44;17.52;;;9.10;;
34481;SDS011;20720;48.886;9.388;2023-01-23T09:08:10;17.02;;;8.82;;
34481;SDS011;20720;48.886;9.388;2023-01-23T09:10:35;14.63;;;8.15;;
34481;SDS011;20720;48.886;9.388;2023-01-23T09:13:01;19.67;;;10.60;;
34481;SDS011;20720;48.886;9.388;2023-01-23T09:15:26;14.95;;;8.68;;
34481;SDS011;20720;48.886;9.388;2023-01-23T09:17:52;20.65;;;10.70;;
34481;SDS011;20720;48.886;9.388;2023-01-23T09:20:17;17.85;;;9.95;;
34481;SDS011;20720;48.886;9.388;2023-01-23T09:22:42;17.65;;;9.00;;
34481;SDS011;20720;48.886;9.388;2023-01-23T09:25:08;19.05;;;10.65;;
34481;SDS011;20720;48.886;9.388;2023-01-23T09:27:34;16.90;;;8.77;;
34481;SDS011;20720;48.886;9.388;2023-01-23T09:29:59;20.65;;;11.20;;
34481;SDS011;20720;48.886;9.388;2023-01-23T09:32:24;21.23;;;11.00;;
34481;SDS011;20720;48.886;9.388;2023-01-23T09:34:50;20.52;;;11.15;;
34481;SDS011;20720;48.886;9.388;2023-01-23T09:37:16;18.75;;;9.40;;
34481;SDS011;20720;48.886;9.388;2023-01-23T09:39:42;20.38;;;10.60;;
34481;SDS011;20720;48.886;9.388;2023-01-23T09:42:18;19.10;;;9.40;;
34481;SDS011;20720;48.886;9.388;2023-01-23T09:44:54;19.92;;;10.70;;
34481;SDS011;20720;48.886;9.388;2023-01-23T09:49:59;17.75;;;9.35;;
34481;SDS011;20720;48.886;9.388;2023-01-23T09:52:29;19.08;;;10.02;;
34481;SDS011;20720;48.886;9.388;2023-01-23T09:57:34;21.83;;;10.90;;
34481;SDS011;20720;48.886;9.388;2023-01-23T10:00:14;17.95;;;9.65;;
34481;SDS011;20720;48.886;9.388;2023-01-23T10:02:55;16.83;;;9.02;;
34481;SDS011;20720;48.886;9.388;2023-01-23T10:05:24;17.00;;;8.57;;
34481;SDS011;20720;48.886;9.388;2023-01-23T10:11:07;17.67;;;9.32;;
34481;SDS011;20720;48.886;9.388;2023-01-23T10:16:32;20.25;;;10.60;;
34481;SDS011;20720;48.886;9.388;2023-01-23T10:19:04;16.98;;;9.48;;
34481;SDS011;20720;48.886;9.388;2023-01-23T10:27:10;19.17;;;10.30;;
34481;SDS011;20720;48.886;9.388;2023-01-23T10:29:43;16.13;;;9.27;;
34481;SDS011;20720;48.886;9.388;2023-01-23T10:32:16;20.27;;;10.85;;
34481;SDS011;20720;48.886;9.388;2023-01-23T10:35:04;18.63;;;8.13;;
34481;SDS011;20720;48.886;9.388;2023-01-23T10:37:44;17.42;;;9.93;;
34481;SDS011;20720;48.886;9.388;2023-01-23T10:40:20;21.70;;;10.93;;
34481;SDS011;20720;48.886;9.388;2023-01-23T10:43:13;21.48;;;11.18;;
34481;SDS011;20720;48.886;9.388;2023-01-23T10:45:41;21.15;;;10.25;;
34481;SDS011;20720;48.886;9.388;2023-01-23T10:50:52;20.02;;;11.60;;
34481;SDS011;20720;48.886;9.388;2023-01-23T10:53:19;20.63;;;11.30;;
34481;SDS011;20720;48.886;9.388;2023-01-23T10:55:45;20.17;;;9.18;;
34481;SDS011;20720;48.886;9.388;2023-01-23T10:58:31;21.77;;;11.07;;
34481;SDS011;20720;48.886;9.388;2023-01-23T11:01:00;19.48;;;10.63;;
34481;SDS011;20720;48.886;9.388;2023-01-23T11:03:28;22.63;;;11.80;;
34481;SDS011;20720;48.886;9.388;2023-01-23T11:06:02;22.10;;;11.70;;
34481;SDS011;20720;48.886;9.388;2023-01-23T11:13:38;22.98;;;12.38;;
34481;SDS011;20720;48.886;9.388;2023-01-23T11:16:04;23.13;;;11.98;;
34481;SDS011;20720;48.886;9.388;2023-01-23T11:21:00;21.38;;;11.95;;
34481;SDS011;20720;48.886;9.388;2023-01-23T11:23:26;22.05;;;11.48;;
34481;SDS011;20720;48.886;9.388;2023-01-23T11:25:54;23.42;;;13.30;;
34481;SDS011;20720;48.886;9.388;2023-01-23T11:28:33;22.88;;;11.88;;
34481;SDS011;20720;48.886;9.388;2023-01-23T11:38:56;25.50;;;13.15;;
34481;SDS011;20720;48.886;9.388;2023-01-23T11:41:31;22.65;;;11.57;;
34481;SDS011;20720;48.886;9.388;2023-01-23T11:44:04;24.38;;;13.25;;
34481;SDS011;20720;48.886;9.388;2023-01-23T11:52:15;24.77;;;12.27;;
34481;SDS011;20720;48.886;9.388;2023-01-23T12:09:14;20.02;;;11.18;;
34481;SDS011;20720;48.886;9.388;2023-01-23T12:14:53;20.23;;;11.48;;
34481;SDS011;20720;48.886;9.388;2023-01-23T12:20:04;21.90;;;11.70;;
34481;SDS011;20720;48.886;9.388;2023-01-23T12:26:00;19.58;;;10.13;;
34481;SDS011;20720;48.886;9.388;2023-01-23T12:39:12;23.52;;;12.18;;
34481;SDS011;20720;48.886;9.388;2023-01-23T12:41:52;27.83;;;12.43;;
34481;SDS011;20720;48.886;9.388;2023-01-23T12:51:00;21.77;;;10.70;;
34481;SDS011;20720;48.886;9.388;2023-01-23T12:53:03;18.58;;;10.07;;
34481;SDS011;20720;48.886;9.388;2023-01-23T12:58:24;20.30;;;11.25;;
34481;SDS011;20720;48.886;9.388;2023-01-23T13:03:44;19.30;;;10.07;;
34481;SDS011;20720;48.886;9.388;2023-01-23T13:12:01;18.27;;;10.27;;
34481;SDS011;20720;48.886;9.388;2023-01-23T13:16:54;20.53;;;10.87;;
34481;SDS011;20720;48.886;9.388;2023-01-23T13:22:25;19.00;;;10.23;;
34481;SDS011;20720;48.886;9.388;2023-01-23T13:24:53;17.65;;;9.25;;
34481;SDS011;20720;48.886;9.388;2023-01-23T13:32:59;14.90;;;7.80;;
34481;SDS011;20720;48.886;9.388;2023-01-23T13:49:47;15.68;;;9.25;;
34481;SDS011;20720;48.886;9.388;2023-01-23T13:52:35;15.10;;;9.45;;
34481;SDS011;20720;48.886;9.388;2023-01-23T13:55:22;12.63;;;7.85;;
34481;SDS011;20720;48.886;9.388;2023-01-23T13:58:09;15.70;;;9.02;;
34481;SDS011;20720;48.886;9.388;2023-01-23T14:00:37;15.38;;;9.63;;
34481;SDS011;20720;48.886;9.388;2023-01-23T14:03:22;15.15;;;8.75;;
34481;SDS011;20720;48.886;9.388;2023-01-23T14:06:15;14.02;;;8.70;;
34481;SDS011;20720;48.886;9.388;2023-01-23T14:08:50;18.05;;;10.27;;
34481;SDS011;20720;48.886;9.388;2023-01-23T14:11:18;16.77;;;10.02;;
34481;SDS011;20720;48.886;9.388;2023-01-23T14:13:45;16.50;;;9.15;;
34481;SDS011;20720;48.886;9.388;2023-01-23T14:16:15;18.02;;;10.27;;
34481;SDS011;20720;48.886;9.388;2023-01-23T14:18:51;19.50;;;11.20;;
34481;SDS011;20720;48.886;9.388;2023-01-23T14:21:29;17.65;;;9.98;;
34481;SDS011;20720;48.886;9.388;2023-01-23T14:23:58;18.50;;;10.63;;
34481;SDS011;20720;48.886;9.388;2023-01-23T14:26:32;17.33;;;10.13;;
34481;SDS011;20720;48.886;9.388;2023-01-23T14:29:00;18.98;;;10.40;;
34481;SDS011;20720;48.886;9.388;2023-01-23T14:31:34;17.20;;;9.30;;
34481;SDS011;20720;48.886;9.388;2023-01-23T14:34:19;18.67;;;10.18;;
34481;SDS011;20720;48.886;9.388;2023-01-23T14:36:49;17.88;;;9.60;;
34481;SDS011;20720;48.886;9.388;2023-01-23T14:39:20;16.92;;;8.98;;
34481;SDS011;20720;48.886;9.388;2023-01-23T14:41:48;12.35;;;6.80;;
34481;SDS011;20720;48.886;9.388;2023-01-23T14:44:17;19.65;;;10.23;;
34481;SDS011;20720;48.886;9.388;2023-01-23T14:46:45;17.48;;;10.38;;
34481;SDS011;20720;48.886;9.388;2023-01-23T14:49:15;21.02;;;10.25;;
34481;SDS011;20720;48.886;9.388;2023-01-23T14:51:54;23.98;;;11.88;;
34481;SDS011;20720;48.886;9.388;2023-01-23T14:54:21;19.70;;;10.85;;
34481;SDS011;20720;48.886;9.388;2023-01-23T14:56:47;18.00;;;10.15;;
34481;SDS011;20720;48.886;9.388;2023-01-23T14:59:35;21.65;;;12.05;;
34481;SDS011;20720;48.886;9.388;2023-01-23T15:02:22;19.02;;;10.32;;
34481;SDS011;20720;48.886;9.388;2023-01-23T15:07:55;17.63;;;9.60;;
34481;SDS011;20720;48.886;9.388;2023-01-23T15:13:05;18.17;;;10.50;;
34481;SDS011;20720;48.886;9.388;2023-01-23T15:15:35;17.88;;;9.55;;
34481;SDS011;20720;48.886;9.388;2023-01-23T15:18:02;23.17;;;11.73;;
34481;SDS011;20720;48.886;9.388;2023-01-23T15:20:37;20.85;;;11.40;;
34481;SDS011;20720;48.886;9.388;2023-01-23T15:25:44;21.90;;;11.35;;
34481;SDS011;20720;48.886;9.388;2023-01-23T15:36:46;18.40;;;10.40;;
34481;SDS011;20720;48.886;9.388;2023-01-23T15:39:18;32.15;;;13.27;;
34481;SDS011;20720;48.886;9.388;2023-01-23T15:41:54;29.38;;;12.32;;
34481;SDS011;20720;48.886;9.388;2023-01-23T15:44:21;25.13;;;13.18;;
34481;SDS011;20720;48.886;9.388;2023-01-23T15:46:47;20.52;;;11.80;;
34481;SDS011;20720;48.886;9.388;2023-01-23T15:49:12;22.67;;;12.95;;
34481;SDS011;20720;48.886;9.388;2023-01-23T15:51:38;22.30;;;12.43;;
34481;SDS011;20720;48.886;9.388;2023-01-23T15:54:03;21.98;;;12.93;;
34481;SDS011;20720;48.886;9.388;2023-01-23T15:56:31;19.38;;;10.00;;
34481;SDS011;20720;48.886;9.388;2023-01-23T15:58:58;21.95;;;11.82;;
34481;SDS011;20720;48.886;9.388;2023-01-23T16:01:26;19.83;;;11.32;;
34481;SDS011;20720;48.886;9.388;2023-01-23T16:03:52;28.77;;;13.30;;
34481;SDS011;20720;48.886;9.388;2023-01-23T16:06:17;21.27;;;11.00;;
34481;SDS011;20720;48.886;9.388;2023-01-23T16:08:45;22.13;;;12.07;;
34481;SDS011;20720;48.886;9.388;2023-01-23T16:11:11;23.52;;;12.30;;
34481;SDS011;20720;48.886;9.388;2023-01-23T16:13:36;22.27;;;12.68;;
34481;SDS011;20720;48.886;9.388;2023-01-23T16:16:02;24.27;;;12.38;;
34481;SDS011;20720;48.886;9.388;2023-01-23T16:18:27;20.42;;;11.95;;
34481;SDS011;20720;48.886;9.388;2023-01-23T16:20:52;25.02;;;12.82;;
34481;SDS011;20720;48.886;9.388;2023-01-23T16:23:19;29.02;;;13.75;;
34481;SDS011;20720;48.886;9.388;2023-01-23T16:25:46;24.23;;;12.65;;
34481;SDS011;20720;48.886;9.388;2023-01-23T16:28:12;22.20;;;12.20;;
34481;SDS011;20720;48.886;9.388;2023-01-23T16:30:44;22.33;;;12.77;;
34481;SDS011;20720;48.886;9.388;2023-01-23T16:33:10;23.75;;;11.63;;
34481;SDS011;20720;48.886;9.388;2023-01-23T16:35:35;26.60;;;13.23;;
34481;SDS011;20720;48.886;9.388;2023-01-23T16:38:01;23.15;;;13.30;;
34481;SDS011;20720;48.886;9.388;2023-01-23T16:40:27;23.75;;;13.20;;
34481;SDS011;20720;48.886;9.388;2023-01-23T16:42:57;19.20;;;11.45;;
34481;SDS011;20720;48.886;9.388;2023-01-23T16:45:27;20.13;;;10.88;;
34481;SDS011;20720;48.886;9.388;2023-01-23T16:47:54;21.52;;;11.82;;
34481;SDS011;20720;48.886;9.388;2023-01-23T16:50:30;20.13;;;11.52;;
34481;SDS011;20720;48.886;9.388;2023-01-23T16:52:59;15.85;;;10.10;;
34481;SDS011;20720;48.886;9.388;2023-01-23T16:55:29;22.58;;;11.65;;